首页
METAR-TAF:

METAR-TAF

机场 :

馬久羅, 馬紹爾群島

馬紹爾群島國際機場

纬度: 07-04N, 经度: 171-17E, 海拔: 2米

当前天气观测

该预报发布于23分钟前的12:54 UTC
风速10节,风向东转东北
温度 28°C
湿度 84%
气压 1009 hPa
能見度: 24.1公里
少量云层高于1500英尺
散云层高于5000英尺
散云层高于12000英尺
多云层高于30000英尺

METAR: PKMJ 171254Z 06010KT 15SM FEW015 SCT050 SCT120 BKN300 28/25 A2980

时间: 01:17 (13:17 UTC)

预报

该预报发布于1小时和55分钟前的11:22 UTC
预报有效从17日的 12点(UTC)到 18日的 12点(UTC)
风速10节,风向东转东北
能見度: 10公里
散云层高于1500英尺
散云层高于5000英尺
多云层高于12000英尺
附近有阵雨

TAF: PKMJ 171122Z 1712/1812 06010KT P6SM VCSH SCT015 SCT050 BKN120

超过4000个机场的气象观测和天气预报(METAR&TAF报告)。

可查询的气象台以黄色和红色小点在地图上表示。

将鼠标移到小点上方,可查看气象台名称。

然后点击查看天气观测和预报。

如需切换地图:点击带黑十字的绿色按钮放大地图;点击带横线的绿色按钮缩小地图;或者点击绿色箭头查看邻近地区的地图。


METAR-TAF: